Whispering Oaks, Illinois
Current Conditions -  °F | °C
As of 2:54 PM on Thursday 18 Dec 2014 (Local Time) from KPIA Reporting Station
Broken Clouds Broken Clouds  
Wind Chill: -4°   Ceiling: 12000
Heat Index: -1°   Visibility: 10mi
Dew Point: -8°   Wind: 5mph
Humidity: 61%   Direction: 340°NNW
Pressure: 30.24"   Gusts: NA
Location:  40.5996°N, 89.5548°W
Report Text: KPIA 182054Z 34004KT 10SM SCT070 BKN120 M01/M08 A3024 RMK AO2 SLP251 T10111078 56011
Loading
Personal Weather Stations






























Interactive Weather Map New forecast layout! Learn more

10-Day Weather Forecast

Advertisements
Track Severe Weather on mobile